Time;durP1;ratioP1;P1;durP2;ratioP2;P2;SDS_P1;SDS_P2;PMS_P1;PMS_P2;Temp;Humidity;BMP_temperature;BMP_pressure;BME280_temperature;BME280_humidity;BME280_pressure;Samples;Min_cycle;Max_cycle;Signal;HPM_P1;HPM_P2
2023/05/12 00:03:02;;;;;;;1999.90;999.90;;;12.50;99.90;;;;;;6637134;89;20262;-79
2023/05/12 00:13:03;;;;;;;1999.90;999.90;;;12.50;99.90;;;;;;6636693;89;20220;-79
2023/05/12 00:23:03;;;;;;;1999.90;999.90;;;12.60;99.90;;;;;;6619452;89;20300;-79
2023/05/12 00:33:04;;;;;;;1999.90;999.90;;;12.60;99.90;;;;;;6621029;89;20194;-80
2023/05/12 00:43:04;;;;;;;1999.90;999.90;;;12.60;99.90;;;;;;6620885;89;20188;-80
2023/05/12 00:53:05;;;;;;;1999.90;999.90;;;12.50;99.90;;;;;;6621013;89;20200;-80
2023/05/12 01:03:06;;;;;;;1999.90;999.90;;;12.50;99.90;;;;;;6620593;89;20205;-79
2023/05/12 01:13:07;;;;;;;1999.90;999.90;;;12.50;99.90;;;;;;6618483;89;20746;-78
2023/05/12 01:23:08;;;;;;;1999.90;999.90;;;12.40;99.90;;;;;;6618755;89;20365;-79
2023/05/12 01:33:09;;;;;;;1999.90;999.90;;;12.30;99.90;;;;;;6620000;89;20177;-78
2023/05/12 01:43:10;;;;;;;1999.90;999.90;;;12.30;99.90;;;;;;6621209;89;20194;-78
2023/05/12 01:53:11;;;;;;;1999.90;999.90;;;12.30;99.90;;;;;;6620641;89;20280;-78
2023/05/12 02:03:11;;;;;;;1999.90;999.90;;;12.30;99.90;;;;;;6620932;89;20189;-78
2023/05/12 02:13:15;;;;;;;1999.90;999.90;;;12.40;99.90;;;;;;6620105;89;20206;-78
2023/05/12 02:23:15;;;;;;;1999.90;999.90;;;12.30;99.90;;;;;;6620241;89;20201;-79
2023/05/12 02:33:17;;;;;;;1999.90;999.90;;;12.40;99.90;;;;;;6619065;89;20208;-79
2023/05/12 02:43:18;;;;;;;1999.90;999.90;;;12.40;99.90;;;;;;6621051;89;20292;-78
2023/05/12 02:53:18;;;;;;;1999.90;999.90;;;12.30;99.90;;;;;;6620663;89;20204;-80
2023/05/12 03:03:19;;;;;;;1999.90;999.90;;;12.40;99.90;;;;;;6620482;89;20214;-78
2023/05/12 03:13:19;;;;;;;1999.90;999.90;;;12.30;99.90;;;;;;6620061;89;20209;-78
2023/05/12 03:23:20;;;;;;;1999.90;999.90;;;12.30;99.90;;;;;;6618315;89;20683;-78
2023/05/12 03:33:20;;;;;;;1999.90;999.90;;;12.20;99.90;;;;;;6616923;89;20323;-78
2023/05/12 03:43:21;;;;;;;1999.90;999.90;;;12.20;99.90;;;;;;6616399;89;20185;-78
2023/05/12 03:53:21;;;;;;;1999.90;999.90;;;12.20;99.90;;;;;;6616280;89;20213;-77
2023/05/12 04:03:22;;;;;;;1999.90;999.90;;;12.30;99.90;;;;;;6616504;89;20189;-79
2023/05/12 04:13:23;;;;;;;1999.90;999.90;;;12.30;99.90;;;;;;6616642;89;20196;-78
2023/05/12 04:24:04;;;;;;;1999.90;999.90;;;12.30;99.90;;;;;;6647320;78;20319;-78
2023/05/12 04:34:05;;;;;;;1999.90;999.90;;;12.40;99.90;;;;;;6704229;88;20201;-79
2023/05/12 04:44:06;;;;;;;1999.90;999.90;;;12.40;99.90;;;;;;6707319;88;20222;-79
2023/05/12 04:54:10;;;;;;;1999.90;999.90;;;12.40;99.90;;;;;;6712240;88;20688;-79
2023/05/12 05:04:10;;;;;;;1999.90;999.90;;;12.50;99.90;;;;;;6702700;88;20286;-79
2023/05/12 05:14:11;;;;;;;1999.90;999.90;;;12.50;99.90;;;;;;6689777;89;20202;-79
2023/05/12 05:24:11;;;;;;;1999.90;999.90;;;12.60;99.90;;;;;;6691115;88;20397;-80
2023/05/12 05:34:12;;;;;;;1999.90;999.90;;;12.60;99.90;;;;;;6696205;88;20262;-79
2023/05/12 05:44:12;;;;;;;1999.90;999.90;;;12.60;99.90;;;;;;6694680;88;20747;-79
2023/05/12 05:54:13;;;;;;;1999.90;999.90;;;12.50;99.90;;;;;;6684436;88;20678;-80
2023/05/12 06:04:14;;;;;;;1999.90;999.90;;;12.50;99.90;;;;;;6695548;88;20791;-79
2023/05/12 06:14:14;;;;;;;1999.90;999.90;;;12.50;99.90;;;;;;6701639;88;20261;-78
2023/05/12 06:24:15;;;;;;;1999.90;999.90;;;12.60;99.90;;;;;;6704182;88;21058;-79
2023/05/12 06:34:15;;;;;;;1999.90;999.90;;;12.70;99.90;;;;;;6707083;88;20224;-78
2023/05/12 06:44:16;;;;;;;1999.90;999.90;;;12.80;99.90;;;;;;6700813;88;20337;-78
2023/05/12 06:54:16;;;;;;;1999.90;999.90;;;12.90;99.90;;;;;;6703581;88;20673;-79
2023/05/12 07:04:17;;;;;;;1999.90;999.90;;;13.10;99.90;;;;;;6700591;88;21826;-77
2023/05/12 07:14:17;;;;;;;1999.90;999.90;;;13.40;99.90;;;;;;6710012;88;20239;-79
2023/05/12 07:24:18;;;;;;;1999.90;999.90;;;13.60;99.90;;;;;;6699001;88;20350;-79
2023/05/12 07:34:19;;;;;;;1999.90;999.90;;;13.90;99.90;;;;;;6704972;88;20268;-79
2023/05/12 07:44:19;;;;;;;1999.90;999.90;;;14.10;99.90;;;;;;6699920;88;20206;-79
2023/05/12 07:54:21;;;;;;;1999.90;999.90;;;14.10;99.90;;;;;;6709844;88;20201;-78
2023/05/12 08:04:22;;;;;;;1999.90;999.90;;;14.20;99.90;;;;;;6717851;88;20232;-81
2023/05/12 08:14:24;;;;;;;1999.90;999.90;;;14.40;99.90;;;;;;6711538;88;20662;-80
2023/05/12 08:24:24;;;;;;;1999.90;999.90;;;14.80;99.90;;;;;;6708840;88;20198;-79
2023/05/12 08:34:25;;;;;;;1999.90;999.90;;;15.30;99.90;;;;;;6702508;88;20189;-79
2023/05/12 08:44:26;;;;;;;1999.90;999.90;;;15.80;99.90;;;;;;6716053;88;20195;-80
2023/05/12 08:54:28;;;;;;;1999.90;999.90;;;16.60;99.90;;;;;;6723535;88;20336;-80
2023/05/12 09:04:28;;;;;;;1999.90;999.90;;;17.10;99.90;;;;;;6711430;88;20194;-80
2023/05/12 09:14:31;;;;;;;1999.90;999.90;;;17.20;99.90;;;;;;6710508;88;20729;-81
2023/05/12 09:24:34;;;;;;;1999.90;999.90;;;16.90;99.90;;;;;;6706518;88;20268;-78
2023/05/12 09:34:37;;;;;;;1999.90;999.90;;;16.80;99.90;;;;;;6702737;88;20617;-77
2023/05/12 09:44:38;;;;;;;1999.90;999.90;;;16.70;99.90;;;;;;6699536;88;20294;-78
2023/05/12 09:54:38;;;;;;;1999.90;999.90;;;17.20;99.90;;;;;;6699428;88;20183;-78
2023/05/12 10:04:51;;;;;;;1999.90;999.90;;;17.50;99.90;;;;;;6702666;88;20469;-78
2023/05/12 10:14:54;;;;;;;1999.90;999.90;;;17.90;99.90;;;;;;6706081;88;20238;-77
2023/05/12 10:24:55;;;;;;;1999.90;999.90;;;18.00;99.90;;;;;;6706266;88;20298;-79
2023/05/12 10:35:07;;;;;;;1999.90;999.90;;;18.50;99.90;;;;;;6706491;88;20185;-78
2023/05/12 10:45:18;;;;;;;1999.90;999.90;;;18.60;99.90;;;;;;6703637;88;20597;-78
2023/05/12 10:55:40;;;;;;;1999.90;999.90;;;18.50;99.90;;;;;;6701889;88;20206;-79
2023/05/12 11:05:42;;;;;;;1999.90;999.90;;;19.00;99.90;;;;;;6701561;88;20210;-78
2023/05/12 11:15:43;;;;;;;1999.90;999.90;;;19.00;99.90;;;;;;6705670;88;20231;-76
2023/05/12 11:25:44;;;;;;;1999.90;999.90;;;18.60;99.90;;;;;;6696050;88;20273;-77
2023/05/12 11:35:44;;;;;;;1999.90;999.90;;;18.60;99.90;;;;;;6698557;88;20213;-77
2023/05/12 11:45:45;;;;;;;1999.90;999.90;;;18.40;99.90;;;;;;6701481;88;20218;-77
2023/05/12 11:55:50;;;;;;;1999.90;999.90;;;18.50;99.90;;;;;;6695059;77;20182;-75
2023/05/12 12:06:02;;;;;;;1999.90;999.90;;;18.90;99.90;;;;;;6695957;88;20286;-76
2023/05/12 12:16:03;;;;;;;1999.90;999.90;;;19.10;99.90;;;;;;6692437;88;20227;-76
2023/05/12 12:26:04;;;;;;;1999.90;999.90;;;19.10;99.90;;;;;;6698375;88;20240;-76
2023/05/12 12:36:05;;;;;;;1999.90;999.90;;;19.30;99.90;;;;;;6713003;88;20178;-76
2023/05/12 12:46:05;;;;;;;1999.90;999.90;;;19.30;99.90;;;;;;6714727;88;20694;-77
2023/05/12 12:56:06;;;;;;;1999.90;999.90;;;19.20;99.90;;;;;;6697798;88;20223;-77
2023/05/12 13:06:07;;;;;;;1999.90;999.90;;;19.30;99.90;;;;;;6693214;88;20198;-76
2023/05/12 13:16:07;;;;;;;1999.90;999.90;;;19.40;99.90;;;;;;6693124;88;20318;-76
2023/05/12 13:26:08;;;;;;;1999.90;999.90;;;19.70;99.90;;;;;;6696534;88;20271;-76
2023/05/12 13:36:08;;;;;;;1999.90;999.90;;;19.70;99.90;;;;;;6700774;88;20626;-75
2023/05/12 13:46:09;;;;;;;1999.90;999.90;;;19.90;99.90;;;;;;6699632;88;20210;-76
2023/05/12 13:56:10;;;;;;;1999.90;999.90;;;19.90;99.90;;;;;;6697342;88;20261;-76
2023/05/12 14:06:11;;;;;;;1999.90;999.90;;;20.00;99.90;;;;;;6701148;88;20195;-76
2023/05/12 14:16:12;;;;;;;1999.90;999.90;;;20.00;99.90;;;;;;6702559;88;20223;-76
2023/05/12 14:26:13;;;;;;;1999.90;999.90;;;19.80;99.90;;;;;;6693421;88;20220;-76
2023/05/12 14:36:14;;;;;;;1999.90;999.90;;;19.90;99.90;;;;;;6696322;88;20952;-76
2023/05/12 14:46:14;;;;;;;1999.90;999.90;;;20.30;99.90;;;;;;6696863;88;20185;-77
2023/05/12 14:56:15;;;;;;;1999.90;999.90;;;20.40;99.90;;;;;;6697087;88;20202;-77
2023/05/12 15:06:16;;;;;;;1999.90;999.90;;;19.80;99.90;;;;;;6705609;88;20706;-76
2023/05/12 15:16:16;;;;;;;1999.90;999.90;;;19.70;99.90;;;;;;6692493;88;20703;-76
2023/05/12 15:26:17;;;;;;;1999.90;999.90;;;19.40;99.90;;;;;;6694778;88;20202;-77
2023/05/12 15:36:17;;;;;;;1999.90;999.90;;;19.40;99.90;;;;;;6701259;88;20290;-77
2023/05/12 15:46:18;;;;;;;1999.90;999.90;;;19.50;99.90;;;;;;6691262;88;20182;-76
2023/05/12 15:56:18;;;;;;;1999.90;999.90;;;18.80;99.90;;;;;;6700263;88;20793;-76
2023/05/12 16:06:20;;;;;;;1999.90;999.90;;;18.50;99.90;;;;;;6690379;88;20315;-76
2023/05/12 16:16:21;;;;;;;1999.90;999.90;;;18.50;99.90;;;;;;6691414;88;20182;-77
2023/05/12 16:26:21;;;;;;;1999.90;999.90;;;18.50;99.90;;;;;;6699896;88;20643;-76
2023/05/12 16:36:23;;;;;;;1999.90;999.90;;;18.50;99.90;;;;;;6692904;88;20686;-76
2023/05/12 16:46:24;;;;;;;1999.90;999.90;;;18.90;99.90;;;;;;6709241;88;20211;-76
2023/05/12 16:56:26;;;;;;;1999.90;999.90;;;19.40;99.90;;;;;;6714208;88;20194;-77
2023/05/12 17:06:26;;;;;;;1999.90;999.90;;;19.80;99.90;;;;;;6702823;88;20187;-77
2023/05/12 17:16:27;;;;;;;1999.90;999.90;;;21.00;99.90;;;;;;6699721;88;20607;-77
2023/05/12 17:26:28;;;;;;;1999.90;999.90;;;21.10;99.90;;;;;;6697331;88;21016;-77
2023/05/12 17:36:28;;;;;;;1999.90;999.90;;;20.10;99.90;;;;;;6698620;88;20723;-77
2023/05/12 17:46:29;;;;;;;1999.90;999.90;;;19.30;99.90;;;;;;6692722;88;20207;-77
2023/05/12 18:07:32;;;;;;;1999.90;999.90;;;19.50;99.90;;;;;;6701519;88;20183;-78
2023/05/12 18:17:33;;;;;;;1999.90;999.90;;;18.70;99.90;;;;;;6681011;89;21096;-78
2023/05/12 18:27:34;;;;;;;1999.90;999.90;;;18.00;99.90;;;;;;6676486;89;20187;-78
2023/05/12 18:37:34;;;;;;;1999.90;999.90;;;17.60;99.90;;;;;;6674700;89;20283;-78
2023/05/12 18:47:35;;;;;;;1999.90;999.90;;;17.20;99.90;;;;;;6674250;89;20924;-80
2023/05/12 18:57:35;;;;;;;1999.90;999.90;;;17.00;99.90;;;;;;6672633;88;20241;-79
2023/05/12 19:07:36;;;;;;;1999.90;999.90;;;16.90;99.90;;;;;;6670487;89;20212;-79
2023/05/12 19:17:36;;;;;;;1999.90;999.90;;;16.80;99.90;;;;;;6674968;89;20238;-78
2023/05/12 19:27:37;;;;;;;1999.90;999.90;;;16.70;99.90;;;;;;6686080;88;20233;-79
2023/05/12 19:37:38;;;;;;;1999.90;999.90;;;16.60;99.90;;;;;;6689974;88;20205;-79
2023/05/12 19:47:38;;;;;;;1999.90;999.90;;;16.50;99.90;;;;;;6674596;88;20562;-79
2023/05/12 19:57:39;;;;;;;1999.90;999.90;;;16.30;99.90;;;;;;6694912;88;20255;-79
2023/05/12 20:07:39;;;;;;;1999.90;999.90;;;16.20;99.90;;;;;;6689421;88;20207;-79
2023/05/12 20:17:40;;;;;;;1999.90;999.90;;;16.10;99.90;;;;;;6688537;88;20355;-80
2023/05/12 20:27:41;;;;;;;1999.90;999.90;;;16.00;99.90;;;;;;6688861;88;20651;-79
2023/05/12 20:37:42;;;;;;;1999.90;999.90;;;16.00;99.90;;;;;;6689022;88;20286;-80
2023/05/12 20:47:43;;;;;;;1999.90;999.90;;;15.90;99.90;;;;;;6689320;88;20189;-80
2023/05/12 20:57:43;;;;;;;1999.90;999.90;;;15.80;99.90;;;;;;6687475;88;20298;-80
2023/05/12 21:07:44;;;;;;;1999.90;999.90;;;15.70;99.90;;;;;;6688411;88;20195;-80
2023/05/12 21:17:44;;;;;;;1999.90;999.90;;;15.60;99.90;;;;;;6687740;89;20338;-79
2023/05/12 21:27:46;;;;;;;1999.90;999.90;;;15.50;99.90;;;;;;6689656;89;20317;-81
2023/05/12 21:37:48;;;;;;;1999.90;999.90;;;15.50;99.90;;;;;;6689379;88;20216;-80
2023/05/12 21:47:50;;;;;;;1999.90;999.90;;;15.30;99.90;;;;;;6692228;88;20192;-80
2023/05/12 21:57:50;;;;;;;1999.90;999.90;;;15.30;99.90;;;;;;6691907;88;20216;-80
2023/05/12 22:07:51;;;;;;;1999.90;999.90;;;15.10;99.90;;;;;;6691132;88;20203;-79
2023/05/12 22:17:52;;;;;;;1999.90;999.90;;;14.90;99.90;;;;;;6690548;88;20217;-79
2023/05/12 22:27:52;;;;;;;1999.90;999.90;;;14.80;99.90;;;;;;6691417;88;20247;-80
2023/05/12 22:37:53;;;;;;;1999.90;999.90;;;14.50;99.90;;;;;;6690410;88;20244;-77
2023/05/12 22:47:54;;;;;;;1999.90;999.90;;;14.20;99.90;;;;;;6689624;88;20194;-79
2023/05/12 22:58:01;;;;;;;1999.90;999.90;;;14.10;99.90;;;;;;6697025;88;20257;-79
2023/05/12 23:08:01;;;;;;;1999.90;999.90;;;13.90;99.90;;;;;;6692439;88;20203;-80
2023/05/12 23:18:02;;;;;;;1999.90;999.90;;;13.70;99.90;;;;;;6692367;88;20800;-79
2023/05/12 23:28:03;;;;;;;1999.90;999.90;;;13.70;99.90;;;;;;6691537;88;20198;-79
2023/05/12 23:38:03;;;;;;;1999.90;999.90;;;13.30;99.90;;;;;;6692564;88;20203;-79
2023/05/12 23:48:04;;;;;;;1999.90;999.90;;;13.10;99.90;;;;;;6696058;77;20198;-77
2023/05/12 23:58:05;;;;;;;1999.90;999.90;;;13.10;99.90;;;;;;6692896;88;20190;-77
